Albi, France

12:42 PM CEST on August 28, 2016 (GMT +0200)
station albi | | Change Station

Elev 594 ft 43.93 °N, 2.15 °E | Updated 11 seconds ago

Overcast
Overcast
74.8 °F
Feels Like 76 °F
N
3.4
Wind Variable Wind from NW
Gusts 4.3 mph

Today
High -- | Low -- °F
--% Chance of Precip.
Yesterday
High -- | Low -- °F
Precip. -- in
Pressure 30.18 in
Visibility 6.2 miles
Clouds Scattered Clouds 2900 ft
Mostly Cloudy 3500 ft
Overcast 14000 ft
Heat Index 76 °F
Dew Point 66 °F
Humidity 72%
Rainfall 0.00 in
Snow Depth Not available.
7:10 AM 8:33 PM
Waning Crescent, 16% visible
METAR LFCK 281030Z AUTO 34004KT 250V020 9999 SCT029 BKN035 OVC140 24/16 Q1022 NOSIG
Pressure 30.18 in
Visibility 6.2 miles
Clouds Scattered Clouds 2900 ft
Mostly Cloudy 3500 ft
Overcast 14000 ft
Heat Index 76 °F
Dew Point 66 °F
Humidity 72%
Rainfall 0.00 in
Snow Depth Not available.
7:10 AM 8:33 PM
Waning Crescent, 16% visible
METAR LFCK 281030Z AUTO 34004KT 250V020 9999 SCT029 BKN035 OVC140 24/16 Q1022 NOSIG

10-Day Weather Forecast

×

Almanac

Astronomy

Aug. 28, 2016 Rise Set
Actual Time
Civil Twilight
Nautical Twilight
Astronomical Twilight
Moon
Length of Visible Light
Length of Day
Tomorrow will be .
, % of the Moon is Illuminated

Today's Extremes

Country Highs Country Lows

Community

WunderPhotos

Upload Photos

1,935,541 photos uploaded!

WunderBlog® & News

Nearby

Air Quality

  Air Quality AQ Index Pollutant
Not available.

Snow Depth

Station Depth Elevation

Earthquake Activity

City Distance Mag. Time & Date
Minimum magnitude displayed is 2.5.

Coastal Water Temperatures

Place Temperature

Stations

Nearby Weather Stations

Station Location Temp. Windchill Dew Point Humidity Wind Precip. Elev Updated Type